Time;durP1;ratioP1;P1;durP2;ratioP2;P2;SDS_P1;SDS_P2;PMS_P1;PMS_P2;Temp;Humidity;BMP_temperature;BMP_pressure;BME280_temperature;BME280_humidity;BME280_pressure;Samples;Min_cycle;Max_cycle;Signal;HPM_P1;HPM_P2
2021/03/01 00:01:11;;;;;;;21.05;7.68;;;4.60;99.90;;;;;;5037728;28;20383;-65
2021/03/01 00:03:37;;;;;;;21.70;8.68;;;4.60;99.90;;;;;;5021299;28;20098;-64
2021/03/01 00:06:03;;;;;;;17.63;7.47;;;4.60;99.90;;;;;;5019975;28;20033;-64
2021/03/01 00:08:28;;;;;;;18.48;7.63;;;4.60;99.90;;;;;;5037738;28;20041;-65
2021/03/01 00:10:54;;;;;;;18.38;7.45;;;4.60;99.90;;;;;;5018216;28;20033;-64
2021/03/01 00:13:20;;;;;;;16.75;7.07;;;4.60;99.90;;;;;;5037039;28;20040;-65
2021/03/01 00:15:46;;;;;;;20.50;8.75;;;4.50;99.90;;;;;;5041449;28;20041;-65
2021/03/01 00:18:12;;;;;;;24.25;7.90;;;4.60;99.90;;;;;;5038023;28;20033;-65
2021/03/01 00:20:38;;;;;;;17.98;8.18;;;4.60;99.90;;;;;;5021932;28;20040;-64
2021/03/01 00:23:03;;;;;;;19.02;8.13;;;4.60;99.90;;;;;;5037155;28;20120;-65
2021/03/01 00:25:29;;;;;;;19.05;9.77;;;4.60;99.90;;;;;;5035963;28;20040;-63
2021/03/01 00:27:55;;;;;;;16.02;8.80;;;4.60;99.90;;;;;;5037633;28;20048;-65
2021/03/01 00:30:21;;;;;;;17.63;7.40;;;4.70;99.90;;;;;;5036049;28;20506;-65
2021/03/01 00:32:47;;;;;;;19.38;7.95;;;4.60;99.90;;;;;;5018659;28;20553;-64
2021/03/01 00:35:12;;;;;;;19.58;8.23;;;4.60;99.90;;;;;;5022052;28;20108;-64
2021/03/01 00:37:38;;;;;;;18.50;8.85;;;4.60;99.90;;;;;;5040623;28;20567;-63
2021/03/01 00:40:05;;;;;;;15.75;7.53;;;4.60;99.90;;;;;;5035658;28;20056;-63
2021/03/01 00:42:31;;;;;;;17.05;7.65;;;4.70;99.90;;;;;;5032877;28;20061;-64
2021/03/01 00:44:56;;;;;;;22.20;8.05;;;4.70;99.90;;;;;;5040503;28;20624;-65
2021/03/01 00:47:22;;;;;;;21.67;8.38;;;4.60;99.90;;;;;;5036699;28;20026;-65
2021/03/01 00:49:47;;;;;;;18.55;8.10;;;4.70;99.90;;;;;;5038404;28;20490;-63
2021/03/01 00:52:13;;;;;;;21.00;8.35;;;4.70;99.90;;;;;;5033912;28;20033;-64
2021/03/01 00:54:39;;;;;;;20.35;8.18;;;4.70;99.90;;;;;;5037305;28;20116;-67
2021/03/01 00:57:05;;;;;;;20.05;7.45;;;4.80;99.90;;;;;;5020954;28;20518;-65
2021/03/01 00:59:31;;;;;;;21.35;9.07;;;4.70;99.90;;;;;;5018449;28;20037;-65
2021/03/01 01:01:56;;;;;;;23.02;9.60;;;4.80;99.90;;;;;;5033724;28;20513;-64
2021/03/01 01:04:22;;;;;;;23.95;9.05;;;4.80;99.90;;;;;;5035317;28;20033;-64
2021/03/01 01:06:48;;;;;;;19.80;9.07;;;4.80;99.90;;;;;;5039210;28;20121;-64
2021/03/01 01:09:13;;;;;;;19.15;9.32;;;4.70;99.90;;;;;;5018727;28;20057;-63
2021/03/01 01:11:39;;;;;;;18.17;9.32;;;4.80;99.90;;;;;;5037984;28;20463;-65
2021/03/01 01:14:05;;;;;;;19.55;8.60;;;4.80;99.90;;;;;;5023597;28;20032;-64
2021/03/01 01:16:31;;;;;;;22.42;9.00;;;4.80;99.90;;;;;;5035570;28;20035;-65
2021/03/01 01:18:56;;;;;;;22.23;9.18;;;4.80;99.90;;;;;;5041972;28;20031;-65
2021/03/01 01:21:22;;;;;;;18.13;8.75;;;4.80;99.90;;;;;;5020468;28;20044;-65
2021/03/01 01:23:47;;;;;;;22.35;9.27;;;4.80;99.90;;;;;;5043068;28;20026;-64
2021/03/01 01:26:13;;;;;;;24.38;9.25;;;4.80;99.90;;;;;;5037760;28;20037;-64
2021/03/01 01:28:38;;;;;;;19.55;9.05;;;4.80;99.90;;;;;;5017456;28;20041;-63
2021/03/01 01:31:04;;;;;;;21.75;9.63;;;4.90;99.90;;;;;;5033392;28;20032;-64
2021/03/01 01:33:29;;;;;;;24.17;8.88;;;4.90;99.90;;;;;;5035790;28;20036;-64
2021/03/01 01:35:55;;;;;;;22.98;9.13;;;4.90;99.90;;;;;;5038853;28;20051;-65
2021/03/01 01:38:20;;;;;;;20.80;8.30;;;4.90;99.90;;;;;;5039345;28;20401;-65
2021/03/01 01:40:46;;;;;;;24.40;9.13;;;4.90;99.90;;;;;;5039131;28;20041;-64
2021/03/01 01:43:12;;;;;;;28.13;10.27;;;4.90;99.90;;;;;;5037029;28;20032;-64
2021/03/01 01:45:37;;;;;;;23.33;8.68;;;5.00;99.90;;;;;;5037376;28;20042;-65
2021/03/01 01:48:04;;;;;;;21.25;8.77;;;5.00;99.90;;;;;;5038019;28;20071;-64
2021/03/01 01:50:31;;;;;;;17.90;8.10;;;4.90;99.90;;;;;;5036209;28;20033;-65
2021/03/01 01:52:57;;;;;;;20.75;9.07;;;4.90;99.90;;;;;;5039044;28;20040;-64
2021/03/01 01:55:25;;;;;;;16.75;7.30;;;4.90;99.90;;;;;;5036216;28;20022;-65
2021/03/01 01:57:51;;;;;;;19.92;7.68;;;4.90;99.90;;;;;;5040208;28;20025;-65
2021/03/01 02:03:14;;;;;;;;;;;4.90;99.90;;;;;;5050290;28;20037;-65
2021/03/01 02:05:40;;;;;;;19.27;8.43;;;5.00;99.90;;;;;;5048610;28;19924;-65
2021/03/01 02:08:14;;;;;;;18.75;7.63;;;5.00;99.90;;;;;;5025817;28;20037;-64
2021/03/01 02:10:46;;;;;;;19.75;8.13;;;5.00;99.90;;;;;;5021769;28;20033;-64
2021/03/01 02:13:32;;;;;;;19.60;8.23;;;5.00;99.90;;;;;;5035288;28;20045;-66
2021/03/01 02:16:03;;;;;;;18.52;7.65;;;5.10;99.90;;;;;;5036398;28;20397;-64
2021/03/01 02:18:28;;;;;;;20.98;8.13;;;5.00;99.90;;;;;;5040503;28;20044;-63
2021/03/01 02:20:54;;;;;;;18.17;8.50;;;5.00;99.90;;;;;;5043817;28;20115;-65
2021/03/01 02:23:21;;;;;;;16.08;7.22;;;5.00;99.90;;;;;;5043655;28;20032;-65
2021/03/01 02:25:59;;;;;;;21.80;7.97;;;5.00;99.90;;;;;;5016859;28;20128;-64
2021/03/01 02:28:33;;;;;;;19.00;8.63;;;5.00;99.90;;;;;;5037326;28;20048;-65
2021/03/01 02:31:01;;;;;;;20.60;8.65;;;4.90;99.90;;;;;;5041276;28;20477;-65
2021/03/01 02:33:32;;;;;;;21.75;8.23;;;4.90;99.90;;;;;;5039613;28;20083;-65
2021/03/01 02:36:07;;;;;;;21.65;8.70;;;4.90;99.90;;;;;;5023113;28;20486;-65
2021/03/01 02:38:37;;;;;;;21.73;9.35;;;4.90;99.90;;;;;;5040424;28;20033;-65
2021/03/01 02:41:04;;;;;;;20.65;7.53;;;5.00;99.90;;;;;;5040432;28;20041;-65
2021/03/01 02:43:31;;;;;;;22.10;9.07;;;5.00;99.90;;;;;;5039599;28;20033;-66
2021/03/01 02:45:58;;;;;;;24.50;9.18;;;5.00;99.90;;;;;;5040880;28;20033;-65
2021/03/01 02:48:25;;;;;;;22.70;8.88;;;5.00;99.90;;;;;;5038933;28;20063;-66
2021/03/01 02:50:52;;;;;;;22.67;9.27;;;5.00;99.90;;;;;;5023939;28;20037;-65
2021/03/01 02:53:19;;;;;;;19.52;8.13;;;5.00;99.90;;;;;;5038099;28;20037;-65
2021/03/01 02:55:47;;;;;;;22.90;8.82;;;5.00;99.90;;;;;;5033815;28;20025;-65
2021/03/01 02:58:15;;;;;;;22.38;7.80;;;5.00;99.90;;;;;;5038031;28;20399;-65
2021/03/01 03:00:42;;;;;;;23.33;9.18;;;5.00;99.90;;;;;;5041853;28;20097;-65
2021/03/01 03:03:10;;;;;;;21.30;8.82;;;5.10;99.90;;;;;;5021147;28;20486;-66
2021/03/01 03:05:37;;;;;;;20.00;7.63;;;5.10;99.90;;;;;;5040046;28;20111;-65
2021/03/01 03:08:04;;;;;;;22.23;9.10;;;5.10;99.90;;;;;;5039693;28;20799;-65
2021/03/01 03:10:30;;;;;;;21.92;7.97;;;5.10;99.90;;;;;;5021231;28;20033;-65
2021/03/01 03:12:58;;;;;;;20.83;7.18;;;5.10;99.90;;;;;;5022600;28;20056;-65
2021/03/01 03:15:26;;;;;;;20.42;7.68;;;5.10;99.90;;;;;;5038522;28;20679;-65
2021/03/01 03:17:53;;;;;;;20.08;8.55;;;5.00;99.90;;;;;;5022785;28;20028;-65
2021/03/01 03:20:19;;;;;;;20.08;8.95;;;5.00;99.90;;;;;;5037485;28;20424;-65
2021/03/01 03:22:45;;;;;;;21.13;8.45;;;5.00;99.90;;;;;;5038077;28;20033;-65
2021/03/01 03:25:11;;;;;;;19.52;7.90;;;5.00;99.90;;;;;;5041046;28;20029;-65
2021/03/01 03:27:38;;;;;;;19.75;7.78;;;5.00;99.90;;;;;;5038098;28;20041;-65
2021/03/01 03:30:22;;;;;;;20.15;8.18;;;5.00;99.90;;;;;;5040285;28;20038;-65
2021/03/01 03:32:49;;;;;;;20.27;8.20;;;5.00;99.90;;;;;;5016537;28;20033;-65
2021/03/01 03:35:15;;;;;;;21.35;8.98;;;5.00;99.90;;;;;;5041577;28;20516;-65
2021/03/01 03:38:02;;;;;;;17.58;7.75;;;5.00;99.90;;;;;;5021414;28;20107;-66
2021/03/01 03:40:28;;;;;;;17.90;8.18;;;5.00;99.90;;;;;;5048455;28;20045;-67
2021/03/01 03:42:56;;;;;;;21.33;8.88;;;5.00;99.90;;;;;;5034104;28;20044;-66
2021/03/01 03:45:22;;;;;;;25.05;8.32;;;5.00;99.90;;;;;;5042523;28;20423;-66
2021/03/01 03:47:50;;;;;;;21.58;8.23;;;5.00;99.90;;;;;;5040257;28;20037;-66
2021/03/01 03:50:17;;;;;;;22.85;8.75;;;5.00;99.90;;;;;;5019868;28;20490;-66
2021/03/01 03:52:46;;;;;;;16.55;7.60;;;5.10;99.90;;;;;;5040572;28;20029;-66
2021/03/01 03:55:16;;;;;;;18.83;8.77;;;5.10;99.90;;;;;;5033694;28;20079;-65
2021/03/01 03:57:47;;;;;;;17.30;7.63;;;5.10;99.90;;;;;;5033045;28;20026;-66
2021/03/01 04:00:14;;;;;;;15.50;7.43;;;5.10;99.90;;;;;;5033850;28;20044;-66
2021/03/01 04:02:42;;;;;;;18.95;7.63;;;5.10;99.90;;;;;;5040369;28;20775;-66
2021/03/01 04:05:09;;;;;;;18.23;7.88;;;5.10;99.90;;;;;;5037147;28;20037;-66
2021/03/01 04:07:37;;;;;;;19.38;7.57;;;5.00;99.90;;;;;;5035612;28;20040;-65
2021/03/01 04:10:06;;;;;;;19.75;7.70;;;5.10;99.90;;;;;;5018150;28;20037;-65
2021/03/01 04:12:34;;;;;;;23.10;7.65;;;5.00;99.90;;;;;;5038934;28;20468;-66
2021/03/01 04:15:01;;;;;;;18.70;8.07;;;5.00;99.90;;;;;;5037649;28;20060;-66
2021/03/01 04:17:28;;;;;;;22.55;9.35;;;4.90;99.90;;;;;;5019937;28;20498;-66
2021/03/01 04:19:56;;;;;;;22.13;8.88;;;4.90;99.90;;;;;;5038500;28;20045;-66
2021/03/01 04:22:24;;;;;;;18.38;8.73;;;4.90;99.90;;;;;;5018789;28;20076;-65
2021/03/01 04:24:51;;;;;;;23.42;9.20;;;4.90;99.90;;;;;;5036788;28;20096;-66
2021/03/01 04:27:17;;;;;;;22.55;9.25;;;4.90;99.90;;;;;;5037137;28;20061;-65
2021/03/01 04:29:43;;;;;;;20.60;8.85;;;4.90;99.90;;;;;;5040178;28;20056;-66
2021/03/01 04:32:10;;;;;;;22.85;9.20;;;5.00;99.90;;;;;;5035719;28;20091;-65
2021/03/01 04:34:37;;;;;;;21.50;8.82;;;4.90;99.90;;;;;;5038963;28;20039;-65
2021/03/01 04:37:02;;;;;;;22.73;9.48;;;4.90;99.90;;;;;;5036017;28;20432;-66
2021/03/01 04:39:28;;;;;;;26.42;9.35;;;5.00;99.90;;;;;;5038503;28;20030;-65
2021/03/01 04:41:54;;;;;;;19.50;8.43;;;5.00;99.90;;;;;;5037300;28;20562;-66
2021/03/01 04:44:20;;;;;;;23.48;10.25;;;5.00;99.90;;;;;;5037282;28;20120;-65
2021/03/01 04:46:52;;;;;;;25.88;10.43;;;5.00;99.90;;;;;;5039153;28;20037;-66
2021/03/01 04:49:20;;;;;;;27.48;9.95;;;5.10;99.90;;;;;;5036812;28;20034;-65
2021/03/01 04:51:46;;;;;;;22.70;9.15;;;5.00;99.90;;;;;;5039122;28;20561;-65
2021/03/01 04:54:12;;;;;;;26.95;9.65;;;5.00;99.90;;;;;;5035902;28;20041;-65
2021/03/01 04:56:45;;;;;;;23.00;9.07;;;5.00;99.90;;;;;;5032395;28;20129;-66
2021/03/01 04:59:15;;;;;;;29.67;9.95;;;5.00;99.90;;;;;;5032747;28;20430;-66
2021/03/01 05:01:44;;;;;;;22.65;9.27;;;5.00;99.90;;;;;;5036579;28;20123;-66
2021/03/01 05:04:11;;;;;;;23.80;9.48;;;5.00;99.90;;;;;;5031752;28;20483;-65
2021/03/01 05:06:37;;;;;;;25.85;9.90;;;5.00;99.90;;;;;;5038966;28;20032;-66
2021/03/01 05:09:03;;;;;;;22.80;9.18;;;5.00;99.90;;;;;;5036146;28;20483;-66
2021/03/01 05:11:34;;;;;;;24.02;10.30;;;5.00;99.90;;;;;;5039172;28;20502;-66
2021/03/01 05:14:04;;;;;;;28.38;11.70;;;5.00;99.90;;;;;;5037341;28;20097;-68
2021/03/01 05:16:31;;;;;;;26.27;10.60;;;5.00;99.90;;;;;;5021275;28;20040;-66
2021/03/01 05:18:57;;;;;;;26.27;11.02;;;5.00;99.90;;;;;;5038292;28;20176;-66
2021/03/01 05:21:23;;;;;;;28.92;10.20;;;4.90;99.90;;;;;;5020629;28;20037;-66
2021/03/01 05:23:49;;;;;;;29.00;11.30;;;4.90;99.90;;;;;;5038150;28;20041;-66
2021/03/01 05:26:16;;;;;;;30.60;11.05;;;4.90;99.90;;;;;;5036069;28;20030;-66
2021/03/01 05:28:42;;;;;;;32.88;11.13;;;4.90;99.90;;;;;;5021273;28;20037;-65
2021/03/01 05:31:08;;;;;;;30.27;11.00;;;4.90;99.90;;;;;;5015177;28;20040;-66
2021/03/01 05:33:34;;;;;;;34.95;11.75;;;4.90;99.90;;;;;;5037703;28;20033;-65
2021/03/01 05:36:00;;;;;;;29.48;11.57;;;4.90;99.90;;;;;;5018798;28;20119;-66
2021/03/01 05:38:27;;;;;;;31.90;11.55;;;4.90;99.90;;;;;;5019693;28;20034;-66
2021/03/01 05:40:53;;;;;;;35.50;13.48;;;4.90;99.90;;;;;;5022624;28;20514;-66
2021/03/01 05:43:21;;;;;;;30.35;12.15;;;4.90;99.90;;;;;;5044630;28;20060;-66
2021/03/01 05:45:48;;;;;;;30.65;11.70;;;5.00;99.90;;;;;;5044662;28;20045;-66
2021/03/01 05:48:14;;;;;;;34.47;11.52;;;4.90;99.90;;;;;;5023160;28;20065;-67
2021/03/01 05:50:41;;;;;;;22.17;9.68;;;4.90;99.90;;;;;;5038920;28;20084;-66
2021/03/01 05:53:14;;;;;;;30.80;11.68;;;4.90;99.90;;;;;;5017366;28;20124;-65
2021/03/01 05:55:40;;;;;;;26.73;11.02;;;4.90;99.90;;;;;;5016400;28;20390;-65
2021/03/01 05:58:08;;;;;;;24.92;10.50;;;4.90;99.90;;;;;;5042258;28;20060;-66
2021/03/01 06:00:34;;;;;;;29.95;10.73;;;4.80;99.90;;;;;;5031222;28;20045;-66
2021/03/01 06:03:01;;;;;;;31.35;12.55;;;4.80;99.90;;;;;;5040891;28;20025;-66
2021/03/01 06:05:27;;;;;;;33.40;11.93;;;4.80;99.90;;;;;;5015789;28;20049;-66
2021/03/01 06:07:55;;;;;;;34.55;12.75;;;4.80;99.90;;;;;;5030469;28;20041;-66
2021/03/01 06:10:21;;;;;;;30.20;12.80;;;4.80;99.90;;;;;;5017778;28;20033;-66
2021/03/01 06:12:47;;;;;;;35.10;11.95;;;4.80;99.90;;;;;;5036779;28;20110;-66
2021/03/01 06:15:13;;;;;;;28.75;11.70;;;4.80;99.90;;;;;;5035305;28;20030;-67
2021/03/01 06:17:39;;;;;;;27.35;10.90;;;4.90;99.90;;;;;;5035926;28;20042;-66
2021/03/01 06:20:08;;;;;;;25.45;10.18;;;4.90;99.90;;;;;;5034487;28;20032;-66
2021/03/01 06:22:42;;;;;;;26.55;10.00;;;4.90;99.90;;;;;;5016733;28;21162;-66
2021/03/01 06:25:16;;;;;;;34.15;11.82;;;4.90;99.90;;;;;;5034092;28;20121;-66
2021/03/01 06:27:57;;;;;;;28.40;11.20;;;4.90;99.90;;;;;;5035175;28;20037;-66
2021/03/01 06:30:35;;;;;;;27.60;11.52;;;4.90;99.90;;;;;;5015540;28;20727;-66
2021/03/01 06:33:18;;;;;;;26.95;10.52;;;4.90;99.90;;;;;;5031936;28;20121;-66
2021/03/01 06:35:55;;;;;;;34.47;11.43;;;4.90;99.90;;;;;;5030387;28;20034;-66
2021/03/01 06:38:34;;;;;;;26.30;10.32;;;4.80;99.90;;;;;;5033223;28;20025;-66
2021/03/01 06:41:17;;;;;;;27.48;10.50;;;4.80;99.90;;;;;;5035154;28;20033;-65
2021/03/01 06:43:59;;;;;;;26.42;10.57;;;4.80;99.90;;;;;;5016875;28;20029;-66
2021/03/01 06:46:29;;;;;;;25.52;10.35;;;4.80;99.90;;;;;;5031904;28;20045;-66
2021/03/01 06:48:55;;;;;;;26.17;9.52;;;4.80;99.90;;;;;;5035559;28;20126;-65
2021/03/01 06:51:20;;;;;;;30.02;12.73;;;4.80;99.90;;;;;;5013835;28;20044;-66
2021/03/01 06:53:57;;;;;;;26.83;11.15;;;4.80;99.90;;;;;;5035095;28;20041;-67
2021/03/01 06:56:41;;;;;;;27.20;10.77;;;4.80;99.90;;;;;;5034291;28;20029;-70
2021/03/01 06:59:20;;;;;;;25.83;9.88;;;4.80;99.90;;;;;;5031759;28;20046;-66
2021/03/01 07:01:50;;;;;;;24.35;9.30;;;4.90;99.90;;;;;;5010585;28;20041;-66
2021/03/01 07:04:21;;;;;;;28.25;10.85;;;4.80;99.90;;;;;;5015508;28;20916;-66
2021/03/01 07:06:47;;;;;;;;;;;4.90;99.90;;;;;;5015678;28;20591;-66
2021/03/01 07:09:15;;;;;;;20.52;8.63;;;4.80;99.90;;;;;;5034433;28;19924;-65
2021/03/01 07:11:41;;;;;;;23.75;10.50;;;4.80;99.90;;;;;;5031177;28;20494;-65
2021/03/01 07:14:10;;;;;;;24.25;9.68;;;4.80;99.90;;;;;;5033045;28;20038;-65
2021/03/01 07:16:47;;;;;;;25.35;10.48;;;4.70;99.90;;;;;;5034836;28;20048;-65
2021/03/01 07:19:18;;;;;;;27.67;9.70;;;4.70;99.90;;;;;;5035249;28;20494;-65
2021/03/01 07:21:56;;;;;;;27.48;10.27;;;4.70;99.90;;;;;;5032677;28;20041;-66
2021/03/01 07:24:24;;;;;;;31.08;11.95;;;4.70;99.90;;;;;;5035112;28;20597;-65
2021/03/01 07:26:53;;;;;;;25.27;10.32;;;4.70;99.90;;;;;;5033105;28;20045;-66
2021/03/01 07:29:20;;;;;;;38.28;10.68;;;4.70;99.90;;;;;;5043076;28;20033;-66
2021/03/01 07:32:04;;;;;;;23.30;11.15;;;4.80;99.90;;;;;;5034653;28;20052;-67
2021/03/01 07:34:30;;;;;;;27.70;11.60;;;4.90;99.90;;;;;;5042700;28;20093;-66
2021/03/01 07:36:58;;;;;;;23.60;9.27;;;5.00;99.90;;;;;;5030288;28;20108;-66
2021/03/01 07:39:25;;;;;;;28.77;10.20;;;5.00;99.90;;;;;;5032412;28;20060;-65
2021/03/01 07:41:51;;;;;;;21.65;8.95;;;5.00;99.90;;;;;;5029973;28;20037;-65
2021/03/01 07:44:28;;;;;;;26.95;10.55;;;5.00;99.90;;;;;;5036289;28;20041;-65
2021/03/01 07:46:54;;;;;;;23.60;9.80;;;5.10;99.90;;;;;;5032690;28;20049;-65
2021/03/01 07:49:36;;;;;;;23.77;9.60;;;5.20;99.90;;;;;;5030765;28;20033;-65
2021/03/01 07:52:02;;;;;;;24.40;9.55;;;5.20;99.90;;;;;;5033240;28;20040;-65
2021/03/01 07:54:55;;;;;;;21.17;8.55;;;5.20;99.90;;;;;;5032964;28;20029;-66
2021/03/01 07:57:25;;;;;;;20.92;8.50;;;5.20;99.90;;;;;;5028631;28;20037;-65
2021/03/01 07:59:50;;;;;;;20.58;9.52;;;5.20;99.90;;;;;;5032761;28;20696;-65
2021/03/01 08:02:25;;;;;;;24.77;10.40;;;5.10;99.90;;;;;;5029757;28;20037;-65
2021/03/01 08:04:53;;;;;;;24.83;9.85;;;5.10;99.90;;;;;;5015909;28;20032;-65
2021/03/01 08:07:42;;;;;;;28.67;10.07;;;5.10;99.90;;;;;;5030686;28;20184;-65
2021/03/01 08:10:10;;;;;;;25.00;9.88;;;5.20;99.90;;;;;;5030359;28;20501;-65
2021/03/01 08:12:35;;;;;;;23.40;9.77;;;5.10;99.90;;;;;;5031651;28;20065;-65
2021/03/01 08:15:07;;;;;;;28.58;10.20;;;5.10;99.90;;;;;;5028781;28;20498;-65
2021/03/01 08:17:35;;;;;;;24.05;10.30;;;5.10;99.90;;;;;;5031356;28;20045;-65
2021/03/01 08:20:15;;;;;;;31.15;10.68;;;5.20;99.90;;;;;;5030490;28;20029;-65
2021/03/01 08:23:10;;;;;;;26.35;10.05;;;5.20;99.90;;;;;;5032267;28;20033;-65
2021/03/01 08:25:51;;;;;;;20.88;8.73;;;5.20;99.90;;;;;;5011033;28;20418;-65
2021/03/01 08:28:16;;;;;;;22.27;9.43;;;5.30;99.90;;;;;;5033446;28;20103;-64
2021/03/01 08:30:43;;;;;;;17.15;7.65;;;5.30;99.90;;;;;;5015364;28;20037;-64
2021/03/01 08:33:09;;;;;;;22.65;8.10;;;5.30;99.90;;;;;;5014885;28;20053;-64
2021/03/01 08:35:51;;;;;;;19.05;8.55;;;5.30;99.90;;;;;;5031752;28;20076;-64
2021/03/01 08:38:53;;;;;;;22.08;8.73;;;5.30;99.90;;;;;;5037470;28;20044;-64
2021/03/01 08:41:40;;;;;;;18.75;7.28;;;5.20;99.90;;;;;;5032668;28;20080;-64
2021/03/01 08:44:21;;;;;;;18.75;7.75;;;5.20;99.90;;;;;;5031362;28;20037;-64
2021/03/01 08:46:48;;;;;;;20.65;7.93;;;5.10;99.90;;;;;;5029335;28;20048;-64
2021/03/01 08:49:25;;;;;;;23.48;9.00;;;5.10;99.90;;;;;;5033283;28;20029;-64
2021/03/01 08:51:51;;;;;;;19.77;7.40;;;5.10;99.90;;;;;;5029883;28;20183;-64
2021/03/01 08:54:35;;;;;;;18.55;8.25;;;5.10;99.90;;;;;;5033239;28;20612;-63
2021/03/01 08:57:07;;;;;;;19.70;7.60;;;5.00;99.90;;;;;;5029024;28;20033;-64
2021/03/01 08:59:34;;;;;;;17.58;7.03;;;5.00;99.90;;;;;;5011607;28;20545;-64
2021/03/01 09:02:00;;;;;;;18.40;8.00;;;5.00;99.90;;;;;;5028890;28;20033;-65
2021/03/01 09:04:25;;;;;;;17.75;7.45;;;5.10;99.90;;;;;;5035698;28;20366;-64
2021/03/01 09:06:51;;;;;;;20.52;7.15;;;5.10;99.90;;;;;;5035461;28;20556;-64
2021/03/01 09:09:16;;;;;;;14.82;6.38;;;5.20;99.90;;;;;;5030361;28;20140;-64
2021/03/01 09:11:42;;;;;;;16.75;7.65;;;5.20;99.90;;;;;;5012734;28;20040;-63
2021/03/01 09:14:08;;;;;;;15.07;6.78;;;5.10;99.90;;;;;;5031320;28;20033;-64
2021/03/01 09:16:36;;;;;;;16.42;7.53;;;5.10;99.90;;;;;;5031427;28;20072;-64
2021/03/01 09:19:03;;;;;;;17.25;7.32;;;5.10;99.90;;;;;;5030901;28;20033;-64
2021/03/01 09:21:29;;;;;;;16.08;7.22;;;5.00;99.90;;;;;;5031125;28;20041;-64
2021/03/01 09:23:56;;;;;;;15.82;6.38;;;5.10;99.90;;;;;;5019564;28;20068;-64
2021/03/01 09:26:29;;;;;;;15.43;6.82;;;5.00;99.90;;;;;;5036887;28;20037;-64
2021/03/01 09:28:58;;;;;;;17.20;6.82;;;5.10;99.90;;;;;;5040744;28;20033;-64
2021/03/01 09:31:23;;;;;;;18.77;6.90;;;5.30;99.90;;;;;;5038060;28;20514;-64
2021/03/01 09:33:50;;;;;;;21.02;7.43;;;5.50;99.90;;;;;;5035585;28;20036;-64
2021/03/01 09:36:16;;;;;;;17.85;6.70;;;5.50;99.90;;;;;;5014954;28;20122;-64
2021/03/01 09:38:48;;;;;;;14.20;6.97;;;5.60;99.90;;;;;;5035761;28;20037;-64
2021/03/01 09:41:14;;;;;;;14.18;6.68;;;5.60;99.90;;;;;;5017506;28;20453;-64
2021/03/01 09:43:42;;;;;;;18.48;7.75;;;5.60;99.90;;;;;;5040230;28;20062;-64
2021/03/01 09:46:09;;;;;;;14.60;6.70;;;5.60;99.90;;;;;;5032514;28;20045;-64
2021/03/01 09:48:44;;;;;;;15.18;6.65;;;5.60;99.90;;;;;;5014161;28;20086;-64
2021/03/01 09:51:10;;;;;;;23.10;6.75;;;5.70;99.90;;;;;;5037992;28;20045;-64
2021/03/01 09:53:37;;;;;;;13.05;6.20;;;5.80;99.90;;;;;;5038247;28;20041;-64
2021/03/01 09:56:03;;;;;;;13.85;6.25;;;5.90;99.90;;;;;;5035629;28;20037;-64
2021/03/01 09:58:41;;;;;;;19.95;8.15;;;5.90;99.90;;;;;;5035854;28;20486;-65
2021/03/01 10:01:11;;;;;;;17.67;6.60;;;5.90;99.90;;;;;;5032868;28;20038;-64
2021/03/01 10:03:41;;;;;;;21.97;8.07;;;6.00;99.90;;;;;;5031929;28;21204;-64
2021/03/01 10:06:08;;;;;;;18.38;6.65;;;6.00;99.90;;;;;;5027930;28;20550;-64
2021/03/01 10:08:34;;;;;;;17.10;7.20;;;6.10;99.90;;;;;;5010634;28;20057;-65
2021/03/01 10:11:05;;;;;;;19.45;7.00;;;6.20;99.90;;;;;;5029811;28;20049;-64
2021/03/01 10:13:35;;;;;;;15.82;6.82;;;6.30;99.90;;;;;;5029193;28;20038;-64
2021/03/01 10:16:03;;;;;;;16.67;7.63;;;6.40;99.90;;;;;;5027829;28;20045;-64
2021/03/01 10:18:31;;;;;;;19.77;7.57;;;6.40;99.90;;;;;;5012594;28;20036;-64
2021/03/01 10:20:59;;;;;;;15.15;6.05;;;6.30;99.90;;;;;;5032656;28;20038;-64
2021/03/01 10:23:29;;;;;;;18.65;7.03;;;6.30;99.90;;;;;;5031589;28;20379;-64
2021/03/01 10:26:19;;;;;;;16.20;7.00;;;6.40;99.90;;;;;;5029464;28;20112;-64
2021/03/01 10:28:52;;;;;;;15.60;6.00;;;6.50;99.90;;;;;;5011339;28;20055;-64
2021/03/01 10:31:19;;;;;;;14.02;6.45;;;6.40;99.90;;;;;;5031644;28;20267;-64
2021/03/01 10:33:54;;;;;;;16.27;6.78;;;6.30;99.90;;;;;;5031041;28;20071;-64
2021/03/01 10:36:20;;;;;;;16.15;6.10;;;6.20;99.90;;;;;;5033941;28;20037;-64
2021/03/01 10:39:05;;;;;;;26.27;7.78;;;6.30;99.90;;;;;;5033018;28;20060;-64
2021/03/01 10:41:33;;;;;;;18.65;6.93;;;6.20;99.90;;;;;;5033080;28;20038;-64
2021/03/01 10:44:08;;;;;;;18.10;7.60;;;6.30;99.90;;;;;;5020817;28;20033;-64
2021/03/01 10:46:49;;;;;;;18.20;6.60;;;6.40;99.90;;;;;;5015264;28;20045;-64
2021/03/01 10:49:16;;;;;;;15.88;6.22;;;6.40;99.90;;;;;;5012442;28;20032;-64
2021/03/01 10:51:42;;;;;;;21.75;7.28;;;6.50;99.90;;;;;;5033757;28;20124;-64
2021/03/01 10:54:08;;;;;;;17.42;6.90;;;6.60;99.90;;;;;;5030789;28;20124;-64
2021/03/01 10:56:34;;;;;;;18.45;6.88;;;6.70;99.90;;;;;;5030415;28;20384;-64
2021/03/01 10:59:00;;;;;;;15.10;5.95;;;6.80;99.90;;;;;;5015469;28;20037;-64
2021/03/01 11:01:43;;;;;;;17.15;7.10;;;6.90;99.90;;;;;;5033555;28;20098;-64
2021/03/01 11:04:10;;;;;;;17.40;7.03;;;7.00;99.90;;;;;;5031727;28;20120;-64
2021/03/01 11:06:37;;;;;;;14.63;6.60;;;7.10;99.90;;;;;;5030026;28;20041;-65
2021/03/01 11:09:05;;;;;;;18.42;6.63;;;7.20;99.90;;;;;;5030038;28;20795;-64
2021/03/01 11:11:32;;;;;;;15.25;6.30;;;7.20;99.90;;;;;;5033196;28;20034;-65
2021/03/01 11:13:58;;;;;;;15.13;6.25;;;7.10;99.90;;;;;;5031162;28;20025;-64
2021/03/01 11:16:24;;;;;;;14.90;5.90;;;7.00;99.90;;;;;;5032278;28;20049;-64
2021/03/01 11:18:49;;;;;;;14.57;5.88;;;7.10;99.90;;;;;;5033000;28;20037;-64
2021/03/01 11:21:15;;;;;;;12.40;5.95;;;7.10;99.90;;;;;;5030662;28;20558;-65
2021/03/01 11:23:41;;;;;;;14.98;5.53;;;7.00;99.90;;;;;;5030919;28;20037;-64
2021/03/01 11:26:06;;;;;;;13.48;4.85;;;7.10;99.90;;;;;;5032145;28;20115;-64
2021/03/01 11:28:33;;;;;;;13.07;5.80;;;7.20;99.90;;;;;;5032400;28;20429;-64
2021/03/01 11:30:59;;;;;;;12.13;4.88;;;7.20;99.90;;;;;;5034448;28;20034;-65
2021/03/01 11:33:24;;;;;;;12.40;5.38;;;7.20;99.90;;;;;;5033751;28;20029;-64
2021/03/01 11:35:54;;;;;;;13.63;5.47;;;7.20;99.90;;;;;;5033495;28;20029;-65
2021/03/01 11:38:24;;;;;;;15.23;5.90;;;7.10;99.90;;;;;;5032792;28;20033;-64
2021/03/01 11:40:50;;;;;;;12.55;5.07;;;7.10;99.90;;;;;;5029986;28;20109;-64
2021/03/01 11:43:16;;;;;;;11.98;4.93;;;7.10;99.90;;;;;;5032955;28;20052;-65
2021/03/01 11:45:42;;;;;;;14.02;5.47;;;7.00;99.90;;;;;;5032668;28;20072;-65
2021/03/01 11:48:11;;;;;;;17.33;5.70;;;6.90;99.90;;;;;;5032542;28;20725;-65
2021/03/01 11:50:37;;;;;;;16.15;5.68;;;6.90;99.90;;;;;;5033831;28;20060;-65
2021/03/01 11:53:02;;;;;;;12.73;5.15;;;6.90;99.90;;;;;;5032381;28;20056;-65
2021/03/01 11:55:28;;;;;;;13.63;4.88;;;7.20;99.90;;;;;;5029429;28;20511;-65
2021/03/01 11:57:53;;;;;;;11.80;5.63;;;7.40;99.90;;;;;;5035610;28;20120;-65
2021/03/01 12:00:19;;;;;;;18.27;4.97;;;7.50;99.90;;;;;;5032096;28;20061;-65
2021/03/01 12:02:45;;;;;;;11.15;4.60;;;7.50;99.90;;;;;;5032570;28;20039;-65
2021/03/01 12:05:11;;;;;;;13.82;5.95;;;7.50;99.90;;;;;;5028194;28;20029;-65
2021/03/01 12:07:37;;;;;;;13.98;5.22;;;7.40;99.90;;;;;;5032517;28;20038;-65
2021/03/01 12:10:04;;;;;;;12.60;5.15;;;7.40;99.90;;;;;;5030555;28;20800;-66
2021/03/01 12:12:29;;;;;;;11.70;5.70;;;7.30;99.90;;;;;;5034275;28;20025;-65
2021/03/01 12:14:55;;;;;;;12.90;4.95;;;7.20;99.90;;;;;;5030627;28;20128;-65
2021/03/01 12:17:21;;;;;;;10.50;4.85;;;7.10;99.90;;;;;;5037681;28;20132;-66
2021/03/01 12:19:46;;;;;;;14.45;4.88;;;7.10;99.90;;;;;;5027874;28;20439;-65
2021/03/01 12:22:12;;;;;;;11.88;4.82;;;7.10;99.90;;;;;;5042454;28;20044;-66
2021/03/01 12:24:38;;;;;;;13.43;5.13;;;7.10;99.90;;;;;;5036754;28;20034;-65
2021/03/01 12:27:03;;;;;;;16.25;5.53;;;7.10;99.90;;;;;;5035002;28;20041;-65
2021/03/01 12:29:29;;;;;;;12.15;5.07;;;7.20;99.90;;;;;;5028980;28;20534;-67
2021/03/01 12:31:55;;;;;;;16.42;5.38;;;7.20;99.90;;;;;;5031888;28;20640;-65
2021/03/01 12:34:20;;;;;;;19.38;5.47;;;7.30;99.90;;;;;;5033842;28;20059;-65
2021/03/01 12:36:46;;;;;;;12.35;4.32;;;7.30;99.90;;;;;;5031042;28;20051;-65
2021/03/01 12:39:12;;;;;;;14.80;5.05;;;7.40;99.90;;;;;;5034852;28;20092;-65
2021/03/01 12:41:37;;;;;;;10.95;4.63;;;7.50;99.90;;;;;;5030830;28;20132;-65
2021/03/01 12:44:03;;;;;;;16.35;5.70;;;7.50;99.90;;;;;;5035801;28;20399;-65
2021/03/01 12:46:28;;;;;;;14.20;4.97;;;7.50;99.90;;;;;;5031214;28;20037;-65
2021/03/01 12:48:54;;;;;;;12.05;5.00;;;7.50;99.90;;;;;;5038269;28;20045;-65
2021/03/01 12:51:20;;;;;;;15.77;5.55;;;7.50;99.90;;;;;;5028198;28;20036;-65
2021/03/01 12:53:45;;;;;;;14.43;5.18;;;7.70;99.90;;;;;;5029465;28;20468;-65
2021/03/01 12:56:11;;;;;;;16.70;5.00;;;7.70;99.90;;;;;;5029578;28;20091;-65